Chan Gurney Municipal Airport Yankton US
ICAO: KYKN
IATA: YKN
Category: Medium
Scheduled Services: No

Elevation: 1306 ft
TransAlt. 18000 ft.

Airport Communications:
AWOS 3:111.4
MINNEAPOLIS CNTR:124.1
HURON RDO:111.4
CTAF/UNICOM:122.8

KYKN Zoom In..

Runways:

(A) RW 01 length 3380 ft width 75 ft
---- / hdg 14

(B) RW 13 length 6095 ft width 100 ft
---- / hdg 133

(C) RW 19 length 3380 ft width 75 ft
---- / hdg 194

(D) RW 31 length 6095 ft width 100 ft
ILS 109.50 / hdg 313

Location; KYKN
Day. 30 / Time. 21.56 Zulu
* Altimeter: 30.25
* Temperature: 17° c. 62.6°f.
* Wind from: 200° Speed 03 kn.
Dewpoint: 11° c.
Visibility: 10 Statute Miles.
Clouds: Overcast 6500 ft.

KYKN 302156Z AUTO 20003KT 10SM OVC065 17/11 A3025 RMK AO2 SLP255 T01670111


Wind From 200°
Speed 03 kn.

 
 
jpsmedia worldairports.se 2020   terms of use